createdAt,value
2022-12-04T00:01:13.019Z,19.25
2022-12-04T00:03:39.919Z,19.08
2022-12-04T00:06:14.137Z,19.80
2022-12-04T00:08:41.015Z,19.20
2022-12-04T00:11:08.536Z,19.88
2022-12-04T00:13:35.395Z,20.75
2022-12-04T00:16:05.166Z,19.05
2022-12-04T00:18:31.918Z,20.08
2022-12-04T00:20:58.745Z,21.58
2022-12-04T00:23:25.489Z,20.52
2022-12-04T00:25:53.257Z,20.65
2022-12-04T00:32:39.397Z,20.13
2022-12-04T00:35:06.680Z,19.40
2022-12-04T00:37:33.536Z,25.58
2022-12-04T00:40:00.374Z,24.02
2022-12-04T00:42:27.159Z,24.13
2022-12-04T00:44:54.010Z,23.45
2022-12-04T00:47:20.861Z,25.27
2022-12-04T00:49:47.691Z,25.35
2022-12-04T00:52:14.446Z,26.33
2022-12-04T00:54:41.263Z,25.33
2022-12-04T00:57:08.064Z,25.02
2022-12-04T00:59:34.892Z,25.40
2022-12-04T01:02:01.663Z,25.65
2022-12-04T01:04:28.583Z,25.92
2022-12-04T01:06:58.048Z,27.00
2022-12-04T01:09:28.447Z,28.77
2022-12-04T01:11:55.207Z,30.73
2022-12-04T01:14:21.988Z,27.15
2022-12-04T01:16:48.877Z,27.40
2022-12-04T01:19:15.703Z,28.08
2022-12-04T01:21:42.456Z,29.35
2022-12-04T01:24:09.252Z,28.60
2022-12-04T01:26:36.212Z,28.35
2022-12-04T01:29:03.261Z,27.40
2022-12-04T01:31:30.095Z,26.83
2022-12-04T01:33:56.942Z,29.63
2022-12-04T01:36:25.342Z,27.90
2022-12-04T01:38:52.116Z,28.42
2022-12-04T01:41:22.066Z,28.40
2022-12-04T01:44:13.701Z,28.05
2022-12-04T01:46:41.423Z,26.73
2022-12-04T01:49:25.434Z,29.50
2022-12-04T01:51:54.673Z,27.02
2022-12-04T01:54:29.971Z,27.67
2022-12-04T01:57:07.993Z,27.40
2022-12-04T01:59:41.732Z,28.08
2022-12-04T02:02:13.331Z,25.42
2022-12-04T02:04:41.047Z,26.35
2022-12-04T02:07:07.918Z,26.45
2022-12-04T02:09:34.763Z,25.00
2022-12-04T02:12:16.899Z,26.67
2022-12-04T02:15:04.198Z,26.58
2022-12-04T02:18:05.084Z,25.75
2022-12-04T02:20:39.491Z,27.40
2022-12-04T02:23:37.128Z,28.77
2022-12-04T02:26:22.394Z,28.23
2022-12-04T02:28:57.897Z,27.70
2022-12-04T02:31:34.328Z,30.40
2022-12-04T02:34:38.534Z,28.40
2022-12-04T02:37:27.965Z,28.83
2022-12-04T02:40:20.692Z,27.58
2022-12-04T02:42:58.707Z,28.58
2022-12-04T02:45:27.571Z,28.77
2022-12-04T02:47:54.435Z,29.63
2022-12-04T02:50:22.299Z,28.95
2022-12-04T02:52:58.932Z,28.02
2022-12-04T02:55:34.995Z,28.52
2022-12-04T02:58:05.766Z,27.80
2022-12-04T03:00:32.642Z,27.83
2022-12-04T03:03:01.992Z,27.65
2022-12-04T03:05:41.593Z,26.55
2022-12-04T03:08:13.541Z,28.38
2022-12-04T03:10:49.821Z,26.73
2022-12-04T03:13:20.343Z,27.90
2022-12-04T03:15:59.139Z,29.48
2022-12-04T03:18:59.359Z,25.90
2022-12-04T03:21:29.701Z,26.35
2022-12-04T03:24:10.665Z,29.75
2022-12-04T03:26:48.030Z,29.92
2022-12-04T03:29:30.464Z,31.77
2022-12-04T03:32:12.208Z,28.02
2022-12-04T03:34:48.830Z,28.00
2022-12-04T03:37:17.563Z,28.17
2022-12-04T03:39:48.563Z,26.90
2022-12-04T03:42:24.065Z,28.17
2022-12-04T03:45:13.076Z,28.85
2022-12-04T03:47:47.189Z,29.20
2022-12-04T03:50:24.253Z,28.20
2022-12-04T03:52:58.790Z,25.88
2022-12-04T03:55:29.786Z,26.88
2022-12-04T03:58:03.191Z,28.10
2022-12-04T04:00:30.050Z,26.17
2022-12-04T04:03:20.747Z,27.83
2022-12-04T04:05:49.354Z,26.27
2022-12-04T04:08:30.904Z,24.95
2022-12-04T04:11:21.189Z,26.25
2022-12-04T04:14:09.625Z,27.23
2022-12-04T04:16:56.318Z,25.98
2022-12-04T04:19:42.081Z,24.27
2022-12-04T04:22:28.239Z,23.70
2022-12-04T04:25:06.308Z,24.80
2022-12-04T04:27:33.136Z,24.13
2022-12-04T04:29:59.981Z,22.67
2022-12-04T04:32:44.815Z,24.42
2022-12-04T04:35:19.497Z,25.27
2022-12-04T04:37:57.364Z,23.58
2022-12-04T04:40:27.356Z,23.63
2022-12-04T04:43:01.050Z,24.23
2022-12-04T04:45:45.146Z,24.50
2022-12-04T04:48:28.789Z,24.25
2022-12-04T04:53:26.832Z,22.13
2022-12-04T04:55:53.734Z,24.27
2022-12-04T04:58:21.186Z,25.75
2022-12-04T05:01:02.489Z,24.60
2022-12-04T05:03:29.658Z,24.55
2022-12-04T05:05:56.522Z,23.98
2022-12-04T05:08:23.474Z,23.63
2022-12-04T05:10:50.308Z,23.70
2022-12-04T05:13:17.184Z,24.70
2022-12-04T05:15:44.123Z,24.00
2022-12-04T05:18:11.025Z,24.15
2022-12-04T05:20:40.904Z,24.27
2022-12-04T05:23:07.680Z,21.85
2022-12-04T05:25:34.533Z,22.55
2022-12-04T05:28:01.310Z,23.88
2022-12-04T05:30:28.134Z,25.55
2022-12-04T05:32:54.927Z,25.45
2022-12-04T05:35:21.709Z,22.75
2022-12-04T05:37:48.580Z,25.60
2022-12-04T05:40:15.458Z,24.20
2022-12-04T05:42:42.235Z,25.52
2022-12-04T05:45:09.346Z,24.33
2022-12-04T05:47:40.297Z,24.63
2022-12-04T05:50:07.838Z,23.77
2022-12-04T05:52:34.632Z,23.73
2022-12-04T05:55:01.534Z,24.40
2022-12-04T05:57:30.029Z,23.83
2022-12-04T05:59:57.400Z,24.85
2022-12-04T06:02:24.435Z,25.40
2022-12-04T06:04:51.333Z,24.52
2022-12-04T06:07:18.108Z,23.60
2022-12-04T06:09:45.009Z,24.88
2022-12-04T06:12:11.800Z,24.23
2022-12-04T06:14:39.954Z,23.88
2022-12-04T06:17:06.968Z,22.27
2022-12-04T06:19:33.787Z,24.92
2022-12-04T06:22:00.580Z,26.48
2022-12-04T06:24:27.433Z,24.73
2022-12-04T06:27:26.251Z,22.70
2022-12-04T06:29:44.922Z,22.67
2022-12-04T06:32:15.088Z,24.30
2022-12-04T06:34:44.706Z,23.88
2022-12-04T06:37:11.567Z,23.20
2022-12-04T06:39:38.369Z,23.00
2022-12-04T06:42:05.297Z,23.58
2022-12-04T06:44:32.194Z,23.58
2022-12-04T06:47:01.008Z,23.10
2022-12-04T06:49:28.180Z,22.58
2022-12-04T06:51:54.964Z,24.85
2022-12-04T06:54:21.754Z,23.52
2022-12-04T06:56:48.861Z,26.10
2022-12-04T06:59:15.683Z,24.58
2022-12-04T07:01:42.579Z,26.50
2022-12-04T07:04:09.592Z,24.65
2022-12-04T07:06:37.332Z,25.58
2022-12-04T07:09:11.829Z,26.20
2022-12-04T07:11:39.547Z,26.65
2022-12-04T07:14:06.499Z,26.95
2022-12-04T07:16:38.621Z,26.17
2022-12-04T07:19:08.029Z,23.58
2022-12-04T07:21:34.842Z,23.67
2022-12-04T07:24:01.760Z,24.73
2022-12-04T07:26:29.619Z,24.65
2022-12-04T07:28:57.057Z,24.98
2022-12-04T07:31:24.606Z,25.35
2022-12-04T07:33:53.420Z,24.83
2022-12-04T07:36:20.492Z,27.45
2022-12-04T07:38:47.377Z,27.75
2022-12-04T07:41:14.508Z,26.73
2022-12-04T07:43:41.445Z,25.52
2022-12-04T07:46:16.590Z,26.75
2022-12-04T07:48:43.519Z,24.40
2022-12-04T07:51:15.123Z,25.60
2022-12-04T07:53:42.184Z,23.50
2022-12-04T07:56:09.352Z,23.67
2022-12-04T07:58:36.125Z,23.33
2022-12-04T08:01:10.990Z,25.63
2022-12-04T08:03:43.519Z,23.75
2022-12-04T08:06:13.900Z,24.27
2022-12-04T08:08:40.737Z,26.33
2022-12-04T08:11:08.718Z,25.42
2022-12-04T08:13:35.637Z,25.67
2022-12-04T08:16:03.804Z,24.95
2022-12-04T08:18:30.771Z,27.13
2022-12-04T08:21:05.636Z,26.88
2022-12-04T08:23:32.520Z,28.55
2022-12-04T08:26:00.580Z,26.10
2022-12-04T08:28:27.453Z,26.55
2022-12-04T08:30:54.411Z,26.58
2022-12-04T08:33:21.324Z,27.25
2022-12-04T08:35:48.135Z,26.08
2022-12-04T08:38:14.946Z,26.73
2022-12-04T08:40:41.953Z,25.85
2022-12-04T08:43:08.753Z,26.73
2022-12-04T08:45:35.608Z,25.83
2022-12-04T08:48:02.463Z,22.65
2022-12-04T08:50:29.269Z,25.58
2022-12-04T08:52:56.056Z,25.85
2022-12-04T08:55:22.907Z,25.98
2022-12-04T08:57:52.423Z,24.50
2022-12-04T09:00:19.888Z,24.02
2022-12-04T09:02:49.768Z,24.27
2022-12-04T09:05:17.193Z,22.67
2022-12-04T09:07:44.075Z,25.85
2022-12-04T09:10:12.579Z,26.13
2022-12-04T09:12:39.389Z,27.80
2022-12-04T09:15:06.940Z,33.08
2022-12-04T09:17:35.126Z,28.63
2022-12-04T09:20:03.193Z,27.25
2022-12-04T09:22:51.306Z,27.65
2022-12-04T09:25:17.393Z,26.17
2022-12-04T09:27:45.067Z,38.45
2022-12-04T09:30:12.307Z,29.58
2022-12-04T09:32:39.162Z,30.85
2022-12-04T09:35:06.568Z,30.35
2022-12-04T09:37:33.668Z,28.15
2022-12-04T09:40:00.488Z,28.45
2022-12-04T09:42:49.971Z,26.30
2022-12-04T09:45:22.189Z,27.08
2022-12-04T09:47:52.552Z,26.20
2022-12-04T09:50:29.384Z,26.25
2022-12-04T09:52:57.960Z,26.15
2022-12-04T09:55:39.017Z,26.27
2022-12-04T09:58:07.442Z,26.27
2022-12-04T10:00:36.936Z,26.63
2022-12-04T10:03:05.840Z,27.65
2022-12-04T10:05:35.528Z,26.98
2022-12-04T10:08:16.226Z,27.50
2022-12-04T10:10:45.638Z,26.73
2022-12-04T10:13:40.170Z,27.17
2022-12-04T10:16:22.174Z,27.98
2022-12-04T10:19:07.303Z,29.00
2022-12-04T10:22:00.545Z,27.55
2022-12-04T10:24:51.793Z,26.95
2022-12-04T10:27:34.627Z,36.42
2022-12-04T10:30:26.564Z,30.02
2022-12-04T10:32:58.185Z,27.73
2022-12-04T10:35:27.397Z,28.42
2022-12-04T10:37:57.429Z,24.42
2022-12-04T10:40:53.949Z,22.35
2022-12-04T10:43:30.995Z,21.60
2022-12-04T10:45:58.270Z,20.27
2022-12-04T10:48:37.386Z,20.05
2022-12-04T10:51:04.350Z,24.17
2022-12-04T10:53:35.849Z,21.08
2022-12-04T10:56:18.865Z,21.88
2022-12-04T10:59:00.191Z,25.08
2022-12-04T11:02:39.556Z,28.02
2022-12-04T11:05:08.374Z,27.73
2022-12-04T11:07:43.421Z,28.33
2022-12-04T11:10:38.042Z,31.05
2022-12-04T11:13:07.205Z,28.88
2022-12-04T11:15:46.645Z,30.30
2022-12-04T11:18:47.243Z,29.77
2022-12-04T11:21:15.976Z,30.67
2022-12-04T11:23:45.189Z,30.10
2022-12-04T11:26:11.988Z,28.45
2022-12-04T11:28:42.202Z,29.83
2022-12-04T11:31:10.244Z,30.40
2022-12-04T11:33:58.885Z,30.35
2022-12-04T11:36:32.163Z,29.45
2022-12-04T11:41:33.565Z,25.80
2022-12-04T11:44:00.995Z,26.85
2022-12-04T11:46:32.094Z,27.52
2022-12-04T11:48:59.313Z,24.85
2022-12-04T11:51:34.267Z,23.90
2022-12-04T11:54:14.605Z,24.83
2022-12-04T11:56:50.088Z,36.55
2022-12-04T11:59:41.543Z,26.23
2022-12-04T12:02:27.206Z,22.48
2022-12-04T12:05:24.956Z,21.80
2022-12-04T12:08:02.931Z,21.83
2022-12-04T12:10:49.682Z,21.77
2022-12-04T12:13:24.753Z,21.05
2022-12-04T12:16:12.448Z,21.27
2022-12-04T12:19:19.855Z,23.13
2022-12-04T12:22:14.021Z,20.70
2022-12-04T12:24:58.816Z,20.13
2022-12-04T12:28:04.494Z,21.70
2022-12-04T12:31:21.559Z,22.02
2022-12-04T12:33:54.623Z,22.38
2022-12-04T12:36:21.840Z,22.40
2022-12-04T12:39:00.335Z,21.02
2022-12-04T12:41:30.129Z,19.88
2022-12-04T12:44:01.158Z,20.38
2022-12-04T12:46:55.101Z,20.65
2022-12-04T12:49:32.353Z,21.67
2022-12-04T12:52:04.069Z,22.33
2022-12-04T12:54:39.727Z,22.85
2022-12-04T12:57:34.116Z,22.00
2022-12-04T13:00:20.387Z,22.88
2022-12-04T13:03:03.692Z,24.02
2022-12-04T13:06:01.314Z,21.38
2022-12-04T13:08:47.901Z,22.33
2022-12-04T13:11:21.870Z,24.17
2022-12-04T13:13:57.061Z,23.13
2022-12-04T13:16:27.468Z,21.52
2022-12-04T13:19:15.561Z,22.80
2022-12-04T13:22:04.074Z,20.48
2022-12-04T13:25:01.097Z,26.17
2022-12-04T13:27:53.070Z,27.00
2022-12-04T13:30:41.417Z,26.52
2022-12-04T13:33:11.203Z,29.85
2022-12-04T13:36:06.028Z,30.90
2022-12-04T13:38:45.895Z,23.65
2022-12-04T13:41:17.281Z,24.27
2022-12-04T13:43:44.192Z,25.90
2022-12-04T13:46:26.187Z,23.35
2022-12-04T13:48:53.014Z,23.10
2022-12-04T13:51:37.235Z,22.60
2022-12-04T13:54:12.986Z,21.90
2022-12-04T13:56:40.942Z,24.85
2022-12-04T13:59:31.254Z,22.27
2022-12-04T14:02:20.198Z,20.98
2022-12-04T14:05:01.351Z,22.00
2022-12-04T14:07:37.088Z,23.25
2022-12-04T14:10:13.680Z,28.33
2022-12-04T14:12:41.935Z,31.42
2022-12-04T14:15:21.683Z,32.50
2022-12-04T14:18:32.853Z,28.05
2022-12-04T14:21:04.969Z,22.92
2022-12-04T14:23:39.525Z,21.30
2022-12-04T14:26:18.701Z,21.92
2022-12-04T14:28:45.528Z,21.48
2022-12-04T14:31:32.129Z,20.67
2022-12-04T14:34:01.944Z,21.02
2022-12-04T14:36:36.575Z,65.93
2022-12-04T14:39:15.760Z,38.53
2022-12-04T14:41:42.563Z,24.98
2022-12-04T14:44:22.065Z,21.23
2022-12-04T14:46:50.023Z,22.60
2022-12-04T14:50:00.034Z,23.23
2022-12-04T14:52:33.330Z,20.73
2022-12-04T14:55:19.867Z,19.45
2022-12-04T14:57:53.005Z,20.10
2022-12-04T15:00:23.493Z,22.05
2022-12-04T15:02:56.285Z,21.38
2022-12-04T15:05:28.789Z,21.33
2022-12-04T15:07:58.853Z,23.13
2022-12-04T15:10:48.370Z,20.50
2022-12-04T15:13:31.672Z,19.75
2022-12-04T15:15:58.605Z,20.15
2022-12-04T15:18:25.439Z,20.35
2022-12-04T15:20:53.957Z,22.90
2022-12-04T15:23:31.226Z,22.27
2022-12-04T15:26:00.651Z,19.52
2022-12-04T15:28:31.450Z,18.33
2022-12-04T15:30:59.048Z,19.30
2022-12-04T15:33:27.724Z,22.08
2022-12-04T15:36:05.501Z,24.23
2022-12-04T15:38:32.466Z,25.45
2022-12-04T15:41:00.125Z,25.08
2022-12-04T15:43:32.006Z,24.27
2022-12-04T15:45:59.101Z,25.95
2022-12-04T15:48:30.695Z,24.45
2022-12-04T15:51:06.007Z,26.50
2022-12-04T15:53:36.620Z,27.65
2022-12-04T15:56:05.696Z,30.52
2022-12-04T15:58:39.489Z,26.20
2022-12-04T16:01:10.803Z,26.98
2022-12-04T16:03:42.915Z,27.15
2022-12-04T16:06:26.097Z,26.60
2022-12-04T16:08:54.687Z,27.30
2022-12-04T16:11:21.558Z,27.55
2022-12-04T16:14:08.883Z,27.27
2022-12-04T16:16:36.636Z,28.10
2022-12-04T16:19:09.604Z,26.42
2022-12-04T16:21:36.390Z,32.03
2022-12-04T16:24:04.386Z,29.55
2022-12-04T16:26:31.396Z,26.55
2022-12-04T16:28:59.259Z,24.52
2022-12-04T16:31:26.196Z,29.35
2022-12-04T16:33:53.069Z,26.50
2022-12-04T16:36:19.845Z,25.42
2022-12-04T16:38:46.648Z,27.33
2022-12-04T16:41:14.653Z,30.35
2022-12-04T16:43:41.596Z,27.27
2022-12-04T16:46:16.609Z,23.55
2022-12-04T16:48:43.438Z,24.42
2022-12-04T16:51:21.435Z,26.73
2022-12-04T16:53:48.676Z,26.17
2022-12-04T16:56:15.463Z,26.17
2022-12-04T16:58:43.660Z,26.42
2022-12-04T17:01:28.561Z,26.90
2022-12-04T17:03:55.447Z,26.35
2022-12-04T17:06:22.452Z,26.20
2022-12-04T17:08:49.303Z,26.60
2022-12-04T17:11:16.740Z,30.60
2022-12-04T17:13:43.538Z,27.48
2022-12-04T17:16:13.984Z,28.35
2022-12-04T17:18:42.253Z,26.83
2022-12-04T17:21:10.291Z,27.83
2022-12-04T17:23:37.190Z,29.33
2022-12-04T17:26:05.168Z,39.28
2022-12-04T17:28:32.127Z,30.88
2022-12-04T17:30:58.986Z,30.38
2022-12-04T17:33:26.013Z,26.98
2022-12-04T17:35:54.394Z,28.08
2022-12-04T17:38:21.271Z,27.60
2022-12-04T17:41:04.157Z,27.48
2022-12-04T17:43:31.404Z,27.50
2022-12-04T17:45:58.269Z,27.95
2022-12-04T17:48:25.556Z,26.13
2022-12-04T17:51:12.743Z,27.63
2022-12-04T17:53:40.688Z,27.13
2022-12-04T17:56:12.698Z,27.83
2022-12-04T17:58:39.631Z,27.55
2022-12-04T18:01:11.288Z,28.95
2022-12-04T18:03:38.299Z,27.65
2022-12-04T18:06:14.429Z,30.30
2022-12-04T18:08:44.076Z,32.30
2022-12-04T18:11:15.158Z,29.52
2022-12-04T18:13:41.999Z,27.50
2022-12-04T18:16:10.414Z,27.77
2022-12-04T18:18:37.567Z,26.77
2022-12-04T18:21:06.870Z,25.77
2022-12-04T18:23:33.692Z,28.10
2022-12-04T18:26:01.077Z,29.35
2022-12-04T18:28:28.953Z,28.30
2022-12-04T18:30:55.786Z,29.75
2022-12-04T18:33:22.647Z,27.88
2022-12-04T18:35:55.908Z,28.60
2022-12-04T18:38:23.783Z,27.38
2022-12-04T18:40:50.841Z,25.48
2022-12-04T18:43:21.388Z,26.58
2022-12-04T18:45:56.601Z,26.58
2022-12-04T18:48:23.467Z,26.60
2022-12-04T18:50:50.269Z,26.05
2022-12-04T18:53:18.618Z,26.80
2022-12-04T18:55:45.699Z,28.00
2022-12-04T18:58:12.496Z,25.80
2022-12-04T19:00:39.423Z,19.13
2022-12-04T19:03:06.596Z,17.25
2022-12-04T19:05:34.565Z,19.33
2022-12-04T19:08:01.485Z,19.17
2022-12-04T19:10:28.577Z,20.10
2022-12-04T19:12:55.530Z,23.15
2022-12-04T19:15:22.335Z,24.23
2022-12-04T19:17:49.095Z,24.60
2022-12-04T19:20:18.220Z,20.42
2022-12-04T19:22:45.137Z,20.27
2022-12-04T19:25:11.976Z,20.02
2022-12-04T19:27:38.791Z,18.95
2022-12-04T19:30:06.711Z,19.30
2022-12-04T19:32:33.704Z,19.00
2022-12-04T19:35:00.513Z,20.05
2022-12-04T19:37:27.318Z,19.27
2022-12-04T19:39:54.919Z,19.00
2022-12-04T19:42:21.939Z,18.83
2022-12-04T19:44:49.739Z,19.17
2022-12-04T19:47:17.545Z,18.23
2022-12-04T19:49:44.387Z,18.75
2022-12-04T19:52:11.871Z,18.55
2022-12-04T19:54:38.733Z,18.77
2022-12-04T19:57:05.675Z,21.83
2022-12-04T19:59:37.018Z,26.63
2022-12-04T20:02:05.707Z,24.15
2022-12-04T20:04:32.640Z,22.50
2022-12-04T20:06:59.445Z,22.80
2022-12-04T20:09:27.385Z,24.08
2022-12-04T20:11:54.902Z,23.48
2022-12-04T20:14:21.922Z,24.60
2022-12-04T20:16:48.806Z,25.40
2022-12-04T20:19:17.037Z,24.38
2022-12-04T20:21:44.456Z,22.70
2022-12-04T20:24:12.625Z,22.98
2022-12-04T20:26:40.277Z,24.20
2022-12-04T20:29:08.038Z,23.63
2022-12-04T20:31:36.859Z,25.08
2022-12-04T20:34:05.485Z,25.15
2022-12-04T20:36:35.528Z,23.80
2022-12-04T20:39:02.358Z,22.15
2022-12-04T20:41:29.680Z,22.70
2022-12-04T20:43:58.510Z,23.30
2022-12-04T20:46:26.232Z,22.17
2022-12-04T20:48:53.746Z,24.63
2022-12-04T20:51:26.020Z,27.65
2022-12-04T20:53:53.678Z,24.65
2022-12-04T20:56:21.883Z,25.98
2022-12-04T20:58:48.787Z,23.48
2022-12-04T21:01:17.299Z,25.20
2022-12-04T21:03:44.219Z,25.27
2022-12-04T21:06:15.442Z,23.75
2022-12-04T21:08:55.775Z,25.70
2022-12-04T21:11:27.478Z,22.95
2022-12-04T21:14:13.622Z,25.52
2022-12-04T21:16:40.872Z,23.83
2022-12-04T21:19:08.918Z,24.20
2022-12-04T21:21:36.117Z,25.20
2022-12-04T21:24:04.147Z,22.27
2022-12-04T21:26:31.421Z,23.70
2022-12-04T21:28:58.522Z,21.15
2022-12-04T21:31:28.068Z,22.10
2022-12-04T21:34:00.993Z,20.05
2022-12-04T21:36:28.396Z,20.40
2022-12-04T21:38:56.038Z,21.42
2022-12-04T21:41:41.597Z,20.60
2022-12-04T21:44:13.280Z,21.23
2022-12-04T21:46:40.405Z,21.33
2022-12-04T21:49:07.885Z,20.83
2022-12-04T21:54:22.914Z,21.15
2022-12-04T21:56:49.722Z,20.00
2022-12-04T21:59:16.554Z,19.52
2022-12-04T22:01:43.449Z,20.88
2022-12-04T22:04:10.349Z,20.77
2022-12-04T22:06:37.920Z,19.77
2022-12-04T22:09:07.408Z,19.30
2022-12-04T22:11:34.427Z,23.08
2022-12-04T22:14:01.300Z,21.65
2022-12-04T22:16:30.714Z,21.88
2022-12-04T22:18:58.431Z,22.52
2022-12-04T22:21:25.586Z,22.10
2022-12-04T22:23:56.870Z,22.73
2022-12-04T22:26:23.819Z,24.02
2022-12-04T22:28:50.707Z,20.58
2022-12-04T22:31:19.262Z,20.65
2022-12-04T22:33:47.973Z,21.90
2022-12-04T22:36:17.229Z,19.65
2022-12-04T22:39:07.732Z,21.13
2022-12-04T22:41:31.030Z,21.00
2022-12-04T22:43:57.830Z,23.42
2022-12-04T22:46:24.664Z,21.85
2022-12-04T22:48:51.754Z,23.05
2022-12-04T22:51:20.198Z,21.58
2022-12-04T22:53:52.350Z,20.35
2022-12-04T22:56:23.924Z,19.25
2022-12-04T22:58:51.060Z,19.48
2022-12-04T23:01:19.608Z,20.65
2022-12-04T23:03:46.926Z,20.48
2022-12-04T23:06:14.162Z,19.25
2022-12-04T23:08:41.968Z,19.83
2022-12-04T23:11:11.590Z,19.63
2022-12-04T23:14:15.957Z,17.23
2022-12-04T23:16:42.815Z,15.60
2022-12-04T23:19:11.929Z,16.17
2022-12-04T23:21:39.074Z,17.48
2022-12-04T23:24:06.312Z,15.60
2022-12-04T23:26:34.873Z,16.92
2022-12-04T23:29:01.799Z,15.85
2022-12-04T23:31:29.327Z,15.65
2022-12-04T23:33:56.277Z,16.10
2022-12-04T23:36:23.134Z,17.25
2022-12-04T23:38:49.982Z,17.75
2022-12-04T23:41:28.205Z,16.02
2022-12-04T23:43:55.083Z,15.50
2022-12-04T23:46:28.865Z,15.15
2022-12-04T23:48:55.757Z,16.27
2022-12-04T23:51:22.784Z,15.40
2022-12-04T23:53:50.841Z,14.77
2022-12-04T23:56:23.175Z,15.45
2022-12-04T23:58:50.741Z,13.40
